Tracy, Montana
Current Conditions -  °F | °C
As of 3:56 PM on Thursday 18 Dec 2014 (Local Time) from KGFA Reporting Station
Clear Clear  
Wind Chill: 27°   Ceiling: Unl
Heat Index: 37°   Visibility: 10mi
Dew Point: 28°   Wind: 17mph
Humidity: 70%   Direction: 220°SW
Pressure: 29.92"   Gusts: 25mph
Location:  47.4098°N, 111.154°W
Report Text: KGFA 182256Z AUTO 22015G22KT 10SM CLR 03/M02 A2992 RMK AO2 SLP161 T00271023
Loading
Personal Weather Stations






























Interactive Weather Map New forecast layout! Learn more

10-Day Weather Forecast

Advertisements
Track Severe Weather on mobile